sensor_id;sensor_type;location;lat;lon;timestamp;temperature;humidity
21590;DHT22;10957;50.968;6.828;2023-07-28T00:02:41;18.30;99.90
21590;DHT22;10957;50.968;6.828;2023-07-28T00:07:43;18.30;99.90
21590;DHT22;10957;50.968;6.828;2023-07-28T00:12:44;18.30;99.90
21590;DHT22;10957;50.968;6.828;2023-07-28T00:17:45;18.40;99.90
21590;DHT22;10957;50.968;6.828;2023-07-28T00:22:46;18.40;99.90
21590;DHT22;10957;50.968;6.828;2023-07-28T00:27:47;18.40;99.90
21590;DHT22;10957;50.968;6.828;2023-07-28T00:32:49;18.40;99.90
21590;DHT22;10957;50.968;6.828;2023-07-28T00:37:50;18.40;99.90
21590;DHT22;10957;50.968;6.828;2023-07-28T00:42:51;18.50;99.90
21590;DHT22;10957;50.968;6.828;2023-07-28T00:47:52;18.50;99.90
21590;DHT22;10957;50.968;6.828;2023-07-28T00:52:55;18.50;99.90
21590;DHT22;10957;50.968;6.828;2023-07-28T00:57:57;18.50;99.90
21590;DHT22;10957;50.968;6.828;2023-07-28T01:02:58;18.50;99.90
21590;DHT22;10957;50.968;6.828;2023-07-28T01:08:05;18.50;99.90
21590;DHT22;10957;50.968;6.828;2023-07-28T01:13:07;18.60;99.90
21590;DHT22;10957;50.968;6.828;2023-07-28T01:18:08;18.60;99.90
21590;DHT22;10957;50.968;6.828;2023-07-28T01:23:19;18.60;99.90
21590;DHT22;10957;50.968;6.828;2023-07-28T01:28:22;18.60;99.90
21590;DHT22;10957;50.968;6.828;2023-07-28T01:33:23;18.60;99.90
21590;DHT22;10957;50.968;6.828;2023-07-28T01:38:24;18.60;99.90
21590;DHT22;10957;50.968;6.828;2023-07-28T01:43:25;18.70;99.90
21590;DHT22;10957;50.968;6.828;2023-07-28T01:48:27;18.70;99.90
21590;DHT22;10957;50.968;6.828;2023-07-28T01:53:28;18.70;99.90
21590;DHT22;10957;50.968;6.828;2023-07-28T01:58:29;18.70;99.90
21590;DHT22;10957;50.968;6.828;2023-07-28T02:03:30;18.70;99.90
21590;DHT22;10957;50.968;6.828;2023-07-28T02:08:32;18.70;99.90
21590;DHT22;10957;50.968;6.828;2023-07-28T02:13:33;18.70;99.90
21590;DHT22;10957;50.968;6.828;2023-07-28T02:18:34;18.80;99.90
21590;DHT22;10957;50.968;6.828;2023-07-28T02:23:35;18.80;99.90
21590;DHT22;10957;50.968;6.828;2023-07-28T02:28:36;18.90;99.90
21590;DHT22;10957;50.968;6.828;2023-07-28T02:33:38;18.90;99.90
21590;DHT22;10957;50.968;6.828;2023-07-28T02:38:39;18.90;99.90
21590;DHT22;10957;50.968;6.828;2023-07-28T02:43:40;18.90;99.90
21590;DHT22;10957;50.968;6.828;2023-07-28T02:48:41;19.00;99.90
21590;DHT22;10957;50.968;6.828;2023-07-28T02:53:42;19.00;99.90
21590;DHT22;10957;50.968;6.828;2023-07-28T02:58:44;19.00;99.90
21590;DHT22;10957;50.968;6.828;2023-07-28T03:03:46;19.10;99.90
21590;DHT22;10957;50.968;6.828;2023-07-28T03:08:48;19.10;99.90
21590;DHT22;10957;50.968;6.828;2023-07-28T03:14:11;19.10;99.90
21590;DHT22;10957;50.968;6.828;2023-07-28T03:19:13;19.10;99.90
21590;DHT22;10957;50.968;6.828;2023-07-28T03:24:15;19.10;99.90
21590;DHT22;10957;50.968;6.828;2023-07-28T03:29:16;19.20;99.90
21590;DHT22;10957;50.968;6.828;2023-07-28T03:34:17;19.20;99.90
21590;DHT22;10957;50.968;6.828;2023-07-28T03:39:19;19.30;99.90
21590;DHT22;10957;50.968;6.828;2023-07-28T03:44:23;19.20;99.90
21590;DHT22;10957;50.968;6.828;2023-07-28T03:49:24;19.30;99.90
21590;DHT22;10957;50.968;6.828;2023-07-28T03:54:26;19.30;99.90
21590;DHT22;10957;50.968;6.828;2023-07-28T03:59:27;19.40;99.90
21590;DHT22;10957;50.968;6.828;2023-07-28T04:04:28;19.40;99.90
21590;DHT22;10957;50.968;6.828;2023-07-28T04:09:29;19.40;99.90
21590;DHT22;10957;50.968;6.828;2023-07-28T04:14:30;19.40;99.90
21590;DHT22;10957;50.968;6.828;2023-07-28T04:19:32;19.40;99.90
21590;DHT22;10957;50.968;6.828;2023-07-28T04:24:34;19.50;99.90
21590;DHT22;10957;50.968;6.828;2023-07-28T04:29:36;19.50;99.90
21590;DHT22;10957;50.968;6.828;2023-07-28T04:34:39;19.50;99.90
21590;DHT22;10957;50.968;6.828;2023-07-28T04:39:45;19.60;99.90
21590;DHT22;10957;50.968;6.828;2023-07-28T04:44:49;19.60;99.90
21590;DHT22;10957;50.968;6.828;2023-07-28T04:49:52;19.60;99.90
21590;DHT22;10957;50.968;6.828;2023-07-28T04:55:13;19.70;99.90
21590;DHT22;10957;50.968;6.828;2023-07-28T05:00:15;19.70;99.90
21590;DHT22;10957;50.968;6.828;2023-07-28T05:05:16;19.80;99.90
21590;DHT22;10957;50.968;6.828;2023-07-28T05:10:17;19.80;99.90
21590;DHT22;10957;50.968;6.828;2023-07-28T05:15:19;19.90;99.90
21590;DHT22;10957;50.968;6.828;2023-07-28T05:20:20;19.90;99.90
21590;DHT22;10957;50.968;6.828;2023-07-28T05:25:29;19.90;99.90
21590;DHT22;10957;50.968;6.828;2023-07-28T05:30:31;19.90;99.90
21590;DHT22;10957;50.968;6.828;2023-07-28T05:35:32;20.10;99.90
21590;DHT22;10957;50.968;6.828;2023-07-28T05:40:34;20.10;99.90
21590;DHT22;10957;50.968;6.828;2023-07-28T05:45:36;20.10;99.90
21590;DHT22;10957;50.968;6.828;2023-07-28T05:50:38;20.20;99.90
21590;DHT22;10957;50.968;6.828;2023-07-28T05:55:40;20.20;99.90
21590;DHT22;10957;50.968;6.828;2023-07-28T06:00:42;20.20;99.90
21590;DHT22;10957;50.968;6.828;2023-07-28T06:05:48;20.20;99.90
21590;DHT22;10957;50.968;6.828;2023-07-28T06:10:49;20.30;99.90
21590;DHT22;10957;50.968;6.828;2023-07-28T06:15:53;20.30;99.90
21590;DHT22;10957;50.968;6.828;2023-07-28T06:20:55;20.30;99.90
21590;DHT22;10957;50.968;6.828;2023-07-28T06:25:56;20.40;99.90
21590;DHT22;10957;50.968;6.828;2023-07-28T06:30:58;20.50;99.90
21590;DHT22;10957;50.968;6.828;2023-07-28T06:36:01;20.50;99.90
21590;DHT22;10957;50.968;6.828;2023-07-28T06:41:03;20.50;99.90
21590;DHT22;10957;50.968;6.828;2023-07-28T06:46:04;20.50;99.90
21590;DHT22;10957;50.968;6.828;2023-07-28T06:51:06;20.50;99.90
21590;DHT22;10957;50.968;6.828;2023-07-28T06:56:07;20.50;99.90
21590;DHT22;10957;50.968;6.828;2023-07-28T07:01:08;20.50;99.90
21590;DHT22;10957;50.968;6.828;2023-07-28T07:06:13;20.50;99.90
21590;DHT22;10957;50.968;6.828;2023-07-28T07:11:14;20.50;99.90
21590;DHT22;10957;50.968;6.828;2023-07-28T07:16:17;20.60;99.90
21590;DHT22;10957;50.968;6.828;2023-07-28T07:21:18;20.50;99.90
21590;DHT22;10957;50.968;6.828;2023-07-28T07:26:19;20.60;99.90
21590;DHT22;10957;50.968;6.828;2023-07-28T07:31:21;20.60;99.90
21590;DHT22;10957;50.968;6.828;2023-07-28T07:36:22;20.60;99.90
21590;DHT22;10957;50.968;6.828;2023-07-28T07:41:23;20.70;99.90
21590;DHT22;10957;50.968;6.828;2023-07-28T07:46:25;20.60;99.90
21590;DHT22;10957;50.968;6.828;2023-07-28T07:51:26;20.60;99.90
21590;DHT22;10957;50.968;6.828;2023-07-28T07:56:27;20.70;99.90
21590;DHT22;10957;50.968;6.828;2023-07-28T08:01:29;20.70;99.90
21590;DHT22;10957;50.968;6.828;2023-07-28T08:06:30;20.80;99.90
21590;DHT22;10957;50.968;6.828;2023-07-28T08:11:31;21.00;99.90
21590;DHT22;10957;50.968;6.828;2023-07-28T08:16:33;21.10;99.90
21590;DHT22;10957;50.968;6.828;2023-07-28T08:21:34;21.00;99.90
21590;DHT22;10957;50.968;6.828;2023-07-28T08:26:37;21.10;99.90
21590;DHT22;10957;50.968;6.828;2023-07-28T08:31:39;21.10;99.90
21590;DHT22;10957;50.968;6.828;2023-07-28T08:36:40;21.00;99.90
21590;DHT22;10957;50.968;6.828;2023-07-28T08:41:41;20.80;99.90
21590;DHT22;10957;50.968;6.828;2023-07-28T08:46:43;20.70;99.90
21590;DHT22;10957;50.968;6.828;2023-07-28T08:51:49;20.60;99.90
21590;DHT22;10957;50.968;6.828;2023-07-28T08:56:51;20.70;99.90
21590;DHT22;10957;50.968;6.828;2023-07-28T09:01:53;20.90;99.90
21590;DHT22;10957;50.968;6.828;2023-07-28T09:06:55;21.00;5.10
21590;DHT22;10957;50.968;6.828;2023-07-28T09:11:56;21.40;1.00
21590;DHT22;10957;50.968;6.828;2023-07-28T09:17:12;20.90;1.00
21590;DHT22;10957;50.968;6.828;2023-07-28T09:22:14;21.80;1.00
21590;DHT22;10957;50.968;6.828;2023-07-28T09:27:23;22.50;1.00
21590;DHT22;10957;50.968;6.828;2023-07-28T09:32:32;21.80;99.90
21590;DHT22;10957;50.968;6.828;2023-07-28T09:37:38;22.00;99.90
21590;DHT22;10957;50.968;6.828;2023-07-28T09:42:44;21.90;99.90
21590;DHT22;10957;50.968;6.828;2023-07-28T09:47:52;21.50;99.90
21590;DHT22;10957;50.968;6.828;2023-07-28T09:53:03;21.50;99.90
21590;DHT22;10957;50.968;6.828;2023-07-28T09:58:05;21.50;99.90
21590;DHT22;10957;50.968;6.828;2023-07-28T10:03:08;21.80;99.90
21590;DHT22;10957;50.968;6.828;2023-07-28T10:08:10;21.80;99.90
21590;DHT22;10957;50.968;6.828;2023-07-28T10:13:21;21.80;99.90
21590;DHT22;10957;50.968;6.828;2023-07-28T10:18:25;21.40;99.90
21590;DHT22;10957;50.968;6.828;2023-07-28T10:23:27;21.30;99.90
21590;DHT22;10957;50.968;6.828;2023-07-28T10:28:30;21.30;1.00
21590;DHT22;10957;50.968;6.828;2023-07-28T10:33:37;21.40;1.00
21590;DHT22;10957;50.968;6.828;2023-07-28T10:38:42;21.50;99.90
21590;DHT22;10957;50.968;6.828;2023-07-28T10:43:45;21.70;99.90
21590;DHT22;10957;50.968;6.828;2023-07-28T10:48:48;21.80;99.90
21590;DHT22;10957;50.968;6.828;2023-07-28T10:53:51;22.30;99.90
21590;DHT22;10957;50.968;6.828;2023-07-28T10:59:00;22.30;99.90
21590;DHT22;10957;50.968;6.828;2023-07-28T11:04:20;22.30;99.90
21590;DHT22;10957;50.968;6.828;2023-07-28T11:09:23;21.80;99.90
21590;DHT22;10957;50.968;6.828;2023-07-28T11:14:25;21.80;99.90
21590;DHT22;10957;50.968;6.828;2023-07-28T11:19:26;22.60;99.90
21590;DHT22;10957;50.968;6.828;2023-07-28T11:24:27;22.50;99.90
21590;DHT22;10957;50.968;6.828;2023-07-28T11:29:29;22.30;99.90
21590;DHT22;10957;50.968;6.828;2023-07-28T11:34:36;22.30;99.90
21590;DHT22;10957;50.968;6.828;2023-07-28T11:39:38;22.80;99.90
21590;DHT22;10957;50.968;6.828;2023-07-28T11:44:41;22.90;99.90
21590;DHT22;10957;50.968;6.828;2023-07-28T11:49:51;22.50;99.90
21590;DHT22;10957;50.968;6.828;2023-07-28T11:54:52;22.90;2.70
21590;DHT22;10957;50.968;6.828;2023-07-28T11:59:54;22.70;1.00
21590;DHT22;10957;50.968;6.828;2023-07-28T12:04:56;23.10;28.80
21590;DHT22;10957;50.968;6.828;2023-07-28T12:10:03;23.30;1.00
21590;DHT22;10957;50.968;6.828;2023-07-28T12:15:28;23.30;1.00
21590;DHT22;10957;50.968;6.828;2023-07-28T12:20:43;23.10;1.00
21590;DHT22;10957;50.968;6.828;2023-07-28T12:25:48;23.00;1.00
21590;DHT22;10957;50.968;6.828;2023-07-28T12:30:50;22.90;1.00
21590;DHT22;10957;50.968;6.828;2023-07-28T12:35:53;22.80;1.00
21590;DHT22;10957;50.968;6.828;2023-07-28T12:40:55;22.60;1.00
21590;DHT22;10957;50.968;6.828;2023-07-28T12:45:57;22.50;1.00
21590;DHT22;10957;50.968;6.828;2023-07-28T12:50:58;22.40;1.00
21590;DHT22;10957;50.968;6.828;2023-07-28T12:55:59;22.70;1.00
21590;DHT22;10957;50.968;6.828;2023-07-28T13:01:00;22.60;1.00
21590;DHT22;10957;50.968;6.828;2023-07-28T13:06:04;22.40;1.00
21590;DHT22;10957;50.968;6.828;2023-07-28T13:11:05;22.30;1.00
21590;DHT22;10957;50.968;6.828;2023-07-28T13:16:07;22.20;1.00
21590;DHT22;10957;50.968;6.828;2023-07-28T13:21:08;22.30;1.00
21590;DHT22;10957;50.968;6.828;2023-07-28T13:26:09;22.90;1.00
21590;DHT22;10957;50.968;6.828;2023-07-28T13:31:11;23.00;1.00
21590;DHT22;10957;50.968;6.828;2023-07-28T13:36:12;22.90;1.00
21590;DHT22;10957;50.968;6.828;2023-07-28T13:41:13;22.80;1.00
21590;DHT22;10957;50.968;6.828;2023-07-28T13:46:14;23.10;1.00
21590;DHT22;10957;50.968;6.828;2023-07-28T13:51:15;23.60;1.00
21590;DHT22;10957;50.968;6.828;2023-07-28T13:56:17;23.70;1.00
21590;DHT22;10957;50.968;6.828;2023-07-28T14:01:18;23.80;1.00
21590;DHT22;10957;50.968;6.828;2023-07-28T14:06:19;23.70;1.00
21590;DHT22;10957;50.968;6.828;2023-07-28T14:11:21;23.90;1.00
21590;DHT22;10957;50.968;6.828;2023-07-28T14:16:22;23.40;1.00
21590;DHT22;10957;50.968;6.828;2023-07-28T14:21:23;23.30;1.00
21590;DHT22;10957;50.968;6.828;2023-07-28T14:26:25;23.40;1.00
21590;DHT22;10957;50.968;6.828;2023-07-28T14:31:26;23.40;1.00
21590;DHT22;10957;50.968;6.828;2023-07-28T14:36:27;23.20;1.00
21590;DHT22;10957;50.968;6.828;2023-07-28T14:41:28;23.10;1.00
21590;DHT22;10957;50.968;6.828;2023-07-28T14:46:30;23.10;1.00
21590;DHT22;10957;50.968;6.828;2023-07-28T14:51:31;22.90;1.00
21590;DHT22;10957;50.968;6.828;2023-07-28T14:56:32;23.00;1.00
21590;DHT22;10957;50.968;6.828;2023-07-28T15:01:34;23.50;1.00
21590;DHT22;10957;50.968;6.828;2023-07-28T15:06:35;23.30;1.00
21590;DHT22;10957;50.968;6.828;2023-07-28T15:11:36;23.00;1.00
21590;DHT22;10957;50.968;6.828;2023-07-28T15:16:37;22.90;1.00
21590;DHT22;10957;50.968;6.828;2023-07-28T15:21:39;22.70;1.00
21590;DHT22;10957;50.968;6.828;2023-07-28T15:26:40;22.80;6.50
21590;DHT22;10957;50.968;6.828;2023-07-28T15:31:41;22.90;25.30
21590;DHT22;10957;50.968;6.828;2023-07-28T15:36:42;22.90;26.00
21590;DHT22;10957;50.968;6.828;2023-07-28T15:41:44;22.70;51.40
21590;DHT22;10957;50.968;6.828;2023-07-28T15:46:45;22.70;36.50
21590;DHT22;10957;50.968;6.828;2023-07-28T15:51:46;22.20;99.90
21590;DHT22;10957;50.968;6.828;2023-07-28T15:56:47;21.80;99.90
21590;DHT22;10957;50.968;6.828;2023-07-28T16:01:49;21.60;1.00
21590;DHT22;10957;50.968;6.828;2023-07-28T16:06:51;21.50;1.00
21590;DHT22;10957;50.968;6.828;2023-07-28T16:11:52;21.70;1.00
21590;DHT22;10957;50.968;6.828;2023-07-28T16:16:54;22.40;1.00
21590;DHT22;10957;50.968;6.828;2023-07-28T16:21:55;21.90;1.00
21590;DHT22;10957;50.968;6.828;2023-07-28T16:26:59;21.90;1.00
21590;DHT22;10957;50.968;6.828;2023-07-28T16:32:00;21.50;1.00
21590;DHT22;10957;50.968;6.828;2023-07-28T16:37:02;21.70;1.00
21590;DHT22;10957;50.968;6.828;2023-07-28T16:42:04;21.90;1.00
21590;DHT22;10957;50.968;6.828;2023-07-28T16:47:07;22.10;1.00
21590;DHT22;10957;50.968;6.828;2023-07-28T16:52:08;22.50;1.00
21590;DHT22;10957;50.968;6.828;2023-07-28T16:57:09;22.40;99.90
21590;DHT22;10957;50.968;6.828;2023-07-28T17:02:12;22.60;99.90
21590;DHT22;10957;50.968;6.828;2023-07-28T17:07:14;22.60;99.90
21590;DHT22;10957;50.968;6.828;2023-07-28T17:12:15;22.20;99.90
21590;DHT22;10957;50.968;6.828;2023-07-28T17:17:16;22.40;99.90
21590;DHT22;10957;50.968;6.828;2023-07-28T17:22:18;22.50;99.90
21590;DHT22;10957;50.968;6.828;2023-07-28T17:27:19;22.40;99.90
21590;DHT22;10957;50.968;6.828;2023-07-28T17:32:20;22.40;99.90
21590;DHT22;10957;50.968;6.828;2023-07-28T17:37:21;22.30;99.90
21590;DHT22;10957;50.968;6.828;2023-07-28T17:42:23;22.20;99.90
21590;DHT22;10957;50.968;6.828;2023-07-28T17:47:26;22.30;99.90
21590;DHT22;10957;50.968;6.828;2023-07-28T17:52:28;22.10;99.90
21590;DHT22;10957;50.968;6.828;2023-07-28T17:57:29;22.20;99.90
21590;DHT22;10957;50.968;6.828;2023-07-28T18:02:30;22.00;99.90
21590;DHT22;10957;50.968;6.828;2023-07-28T18:07:32;21.90;99.90
21590;DHT22;10957;50.968;6.828;2023-07-28T18:12:33;21.80;99.90
21590;DHT22;10957;50.968;6.828;2023-07-28T18:17:34;21.50;99.90
21590;DHT22;10957;50.968;6.828;2023-07-28T18:22:36;21.60;99.90
21590;DHT22;10957;50.968;6.828;2023-07-28T18:27:37;21.40;99.90
21590;DHT22;10957;50.968;6.828;2023-07-28T18:32:38;21.30;99.90
21590;DHT22;10957;50.968;6.828;2023-07-28T18:37:40;21.20;99.90
21590;DHT22;10957;50.968;6.828;2023-07-28T18:42:41;21.10;99.90
21590;DHT22;10957;50.968;6.828;2023-07-28T18:47:42;21.00;99.90
21590;DHT22;10957;50.968;6.828;2023-07-28T18:52:43;21.00;1.00
21590;DHT22;10957;50.968;6.828;2023-07-28T18:57:45;20.80;1.00
21590;DHT22;10957;50.968;6.828;2023-07-28T19:02:46;20.80;1.00
21590;DHT22;10957;50.968;6.828;2023-07-28T19:07:55;20.80;1.00
21590;DHT22;10957;50.968;6.828;2023-07-28T19:12:58;20.80;1.00
21590;DHT22;10957;50.968;6.828;2023-07-28T19:17:59;20.70;1.00
21590;DHT22;10957;50.968;6.828;2023-07-28T19:23:00;20.60;1.00
21590;DHT22;10957;50.968;6.828;2023-07-28T19:28:02;20.70;1.00
21590;DHT22;10957;50.968;6.828;2023-07-28T19:33:03;20.70;1.00
21590;DHT22;10957;50.968;6.828;2023-07-28T19:38:04;20.70;1.00
21590;DHT22;10957;50.968;6.828;2023-07-28T19:43:06;20.70;1.00
21590;DHT22;10957;50.968;6.828;2023-07-28T19:48:07;20.70;1.00
21590;DHT22;10957;50.968;6.828;2023-07-28T19:53:09;20.70;1.00
21590;DHT22;10957;50.968;6.828;2023-07-28T19:58:10;20.70;1.00
21590;DHT22;10957;50.968;6.828;2023-07-28T20:03:12;20.70;1.00
21590;DHT22;10957;50.968;6.828;2023-07-28T20:08:13;20.70;1.00
21590;DHT22;10957;50.968;6.828;2023-07-28T20:13:14;20.70;1.00
21590;DHT22;10957;50.968;6.828;2023-07-28T20:18:16;20.70;1.00
21590;DHT22;10957;50.968;6.828;2023-07-28T20:23:20;20.70;1.00
21590;DHT22;10957;50.968;6.828;2023-07-28T20:28:21;20.70;1.00
21590;DHT22;10957;50.968;6.828;2023-07-28T20:33:22;20.60;1.00
21590;DHT22;10957;50.968;6.828;2023-07-28T20:38:24;20.60;54.80
21590;DHT22;10957;50.968;6.828;2023-07-28T20:43:25;20.50;99.90
21590;DHT22;10957;50.968;6.828;2023-07-28T20:48:26;20.50;99.90
21590;DHT22;10957;50.968;6.828;2023-07-28T20:53:28;20.50;99.90
21590;DHT22;10957;50.968;6.828;2023-07-28T20:58:32;20.50;99.90
21590;DHT22;10957;50.968;6.828;2023-07-28T21:03:33;20.40;99.90
21590;DHT22;10957;50.968;6.828;2023-07-28T21:13:59;20.40;99.90
21590;DHT22;10957;50.968;6.828;2023-07-28T21:19:01;20.40;99.90
21590;DHT22;10957;50.968;6.828;2023-07-28T21:24:03;20.50;99.90
21590;DHT22;10957;50.968;6.828;2023-07-28T21:29:04;20.50;99.90
21590;DHT22;10957;50.968;6.828;2023-07-28T21:34:08;20.60;99.90
21590;DHT22;10957;50.968;6.828;2023-07-28T21:39:15;20.60;99.90
21590;DHT22;10957;50.968;6.828;2023-07-28T21:44:16;20.60;99.90
21590;DHT22;10957;50.968;6.828;2023-07-28T21:49:17;20.60;99.90
21590;DHT22;10957;50.968;6.828;2023-07-28T21:54:21;20.60;99.90
21590;DHT22;10957;50.968;6.828;2023-07-28T21:59:22;20.60;99.90
21590;DHT22;10957;50.968;6.828;2023-07-28T22:04:23;20.40;99.90
21590;DHT22;10957;50.968;6.828;2023-07-28T22:09:24;20.40;99.90
21590;DHT22;10957;50.968;6.828;2023-07-28T22:14:26;20.40;99.90
21590;DHT22;10957;50.968;6.828;2023-07-28T22:19:27;20.30;99.90
21590;DHT22;10957;50.968;6.828;2023-07-28T22:24:29;20.30;99.90
21590;DHT22;10957;50.968;6.828;2023-07-28T22:29:30;20.30;99.90
21590;DHT22;10957;50.968;6.828;2023-07-28T22:34:31;20.10;99.90
21590;DHT22;10957;50.968;6.828;2023-07-28T22:39:32;20.00;99.90
21590;DHT22;10957;50.968;6.828;2023-07-28T22:44:34;20.00;99.90
21590;DHT22;10957;50.968;6.828;2023-07-28T22:49:35;19.90;99.90
21590;DHT22;10957;50.968;6.828;2023-07-28T22:54:36;19.80;99.90
21590;DHT22;10957;50.968;6.828;2023-07-28T22:59:37;19.70;99.90
21590;DHT22;10957;50.968;6.828;2023-07-28T23:04:39;19.70;99.90
21590;DHT22;10957;50.968;6.828;2023-07-28T23:09:41;19.70;99.90
21590;DHT22;10957;50.968;6.828;2023-07-28T23:14:43;19.70;99.90
21590;DHT22;10957;50.968;6.828;2023-07-28T23:19:45;19.70;99.90
21590;DHT22;10957;50.968;6.828;2023-07-28T23:24:46;19.70;99.90
21590;DHT22;10957;50.968;6.828;2023-07-28T23:29:47;19.80;99.90
21590;DHT22;10957;50.968;6.828;2023-07-28T23:34:49;19.90;99.90
21590;DHT22;10957;50.968;6.828;2023-07-28T23:39:51;19.90;99.90
21590;DHT22;10957;50.968;6.828;2023-07-28T23:44:52;19.90;99.90
21590;DHT22;10957;50.968;6.828;2023-07-28T23:49:53;19.90;99.90
21590;DHT22;10957;50.968;6.828;2023-07-28T23:54:54;19.90;99.90
21590;DHT22;10957;50.968;6.828;2023-07-28T23:59:55;19.90;99.90
